createdAt,value
2023-05-21T00:01:16.349Z,31.25
2023-05-21T00:06:37.261Z,33.43
2023-05-21T00:11:58.421Z,29.13
2023-05-21T00:17:18.965Z,32.83
2023-05-21T00:22:40.370Z,33.15
2023-05-21T00:28:01.366Z,29.25
2023-05-21T00:33:22.019Z,33.97
2023-05-21T00:38:43.853Z,29.73
2023-05-21T00:44:04.840Z,31.02
2023-05-21T00:49:25.971Z,31.45
2023-05-21T00:54:47.651Z,31.67
2023-05-21T01:00:09.132Z,31.58
2023-05-21T01:05:30.154Z,32.95
2023-05-21T01:10:50.696Z,32.33
2023-05-21T01:16:13.463Z,34.08
2023-05-21T01:21:36.056Z,35.90
2023-05-21T01:26:58.677Z,35.10
2023-05-21T01:32:25.283Z,33.78
2023-05-21T01:37:51.696Z,31.70
2023-05-21T01:43:12.194Z,31.23
2023-05-21T01:48:32.941Z,31.23
2023-05-21T01:53:53.553Z,30.13
2023-05-21T01:59:14.183Z,29.63
2023-05-21T02:04:34.774Z,30.88
2023-05-21T02:09:55.483Z,30.75
2023-05-21T02:15:18.137Z,33.50
2023-05-21T02:20:39.426Z,33.38
2023-05-21T02:26:00.132Z,28.90
2023-05-21T02:31:20.773Z,32.10
2023-05-21T02:36:41.666Z,36.03
2023-05-21T02:42:02.522Z,34.78
2023-05-21T02:47:23.876Z,32.13
2023-05-21T02:52:44.300Z,33.90
2023-05-21T02:58:05.123Z,34.65
2023-05-21T03:03:25.956Z,32.65
2023-05-21T03:08:46.935Z,36.53
2023-05-21T03:14:07.514Z,36.72
2023-05-21T03:19:30.466Z,35.60
2023-05-21T03:24:51.676Z,32.23
2023-05-21T03:30:12.660Z,37.83
2023-05-21T03:35:50.897Z,36.00
2023-05-21T03:41:11.786Z,33.33
2023-05-21T03:46:34.486Z,33.15
2023-05-21T03:52:04.715Z,31.63
2023-05-21T03:57:25.162Z,31.23
2023-05-21T04:02:45.854Z,28.00
2023-05-21T04:08:10.356Z,26.55
2023-05-21T04:13:31.335Z,29.67
2023-05-21T04:18:52.371Z,30.52
2023-05-21T04:24:13.719Z,31.70
2023-05-21T04:30:00.703Z,31.50
2023-05-21T04:35:21.437Z,30.20
2023-05-21T04:40:42.258Z,26.95
2023-05-21T04:46:02.897Z,30.30
2023-05-21T04:51:24.909Z,30.48
2023-05-21T04:56:47.435Z,29.42
2023-05-21T05:02:08.755Z,28.38
2023-05-21T05:07:29.656Z,25.77
2023-05-21T05:12:50.650Z,27.52
2023-05-21T05:18:12.911Z,30.10
2023-05-21T05:23:34.767Z,25.30
2023-05-21T05:28:55.735Z,24.10
2023-05-21T05:34:16.567Z,25.88
2023-05-21T05:39:37.549Z,27.70
2023-05-21T05:44:58.672Z,22.77
2023-05-21T05:50:19.899Z,25.60
2023-05-21T05:55:41.237Z,22.52
2023-05-21T06:01:02.437Z,23.05
2023-05-21T06:06:24.117Z,23.80
2023-05-21T06:11:45.500Z,23.15
2023-05-21T06:17:06.333Z,24.92
2023-05-21T06:22:27.757Z,23.73
2023-05-21T06:27:49.375Z,22.52
2023-05-21T06:33:15.293Z,19.38
2023-05-21T06:38:36.956Z,20.97
2023-05-21T06:43:58.101Z,19.33
2023-05-21T06:49:38.091Z,18.30
2023-05-21T06:54:58.997Z,20.40
2023-05-21T07:00:23.232Z,19.02
2023-05-21T07:05:44.676Z,18.95
2023-05-21T07:11:06.313Z,18.17
2023-05-21T07:16:27.836Z,16.13
2023-05-21T07:21:49.414Z,18.48
2023-05-21T07:27:24.752Z,16.00
2023-05-21T07:32:48.114Z,16.27
2023-05-21T07:38:09.393Z,16.60
2023-05-21T07:43:31.961Z,17.70
2023-05-21T07:48:53.249Z,16.35
2023-05-21T07:54:14.643Z,17.00
2023-05-21T07:59:36.517Z,16.70
2023-05-21T08:04:57.848Z,18.35
2023-05-21T08:10:19.609Z,16.20
2023-05-21T08:15:43.033Z,15.65
2023-05-21T08:21:05.308Z,16.20
2023-05-21T08:31:47.944Z,13.43
2023-05-21T08:37:09.373Z,14.77
2023-05-21T08:42:53.075Z,14.05
2023-05-21T08:48:23.431Z,13.82
2023-05-21T08:53:45.874Z,16.25
2023-05-21T08:59:09.680Z,17.38
2023-05-21T09:04:31.569Z,16.88
2023-05-21T09:10:03.422Z,16.85
2023-05-21T09:15:24.894Z,12.95
2023-05-21T09:20:46.487Z,12.32
2023-05-21T09:26:11.398Z,12.52
2023-05-21T09:31:33.402Z,12.02
2023-05-21T09:36:57.751Z,12.95
2023-05-21T09:42:21.741Z,13.15
2023-05-21T09:47:44.012Z,10.80
2023-05-21T09:53:05.318Z,11.60
2023-05-21T09:58:26.729Z,14.55
2023-05-21T10:03:50.782Z,13.88
2023-05-21T10:09:11.815Z,13.63
2023-05-21T10:14:32.961Z,10.23
2023-05-21T10:19:54.112Z,12.47
2023-05-21T10:25:14.979Z,11.57
2023-05-21T10:30:36.862Z,9.52
2023-05-21T10:35:58.758Z,11.70
2023-05-21T10:41:20.320Z,10.77
2023-05-21T10:47:43.002Z,9.68
2023-05-21T10:53:25.474Z,11.00
2023-05-21T10:58:57.750Z,14.10
2023-05-21T11:09:43.421Z,8.25
2023-05-21T11:15:04.852Z,11.52
2023-05-21T11:20:34.318Z,9.63
2023-05-21T11:26:01.462Z,7.95
2023-05-21T11:31:26.129Z,9.40
2023-05-21T11:36:47.878Z,10.77
2023-05-21T11:42:08.890Z,8.55
2023-05-21T11:47:30.495Z,9.97
2023-05-21T11:52:52.959Z,10.52
2023-05-21T12:03:36.139Z,9.97
2023-05-21T12:08:58.585Z,9.33
2023-05-21T12:14:19.377Z,8.13
2023-05-21T12:19:40.608Z,10.75
2023-05-21T12:25:02.150Z,6.40
2023-05-21T12:30:23.226Z,9.37
2023-05-21T12:35:50.582Z,9.97
2023-05-21T12:41:11.375Z,7.00
2023-05-21T12:46:32.446Z,6.38
2023-05-21T12:51:53.434Z,6.22
2023-05-21T12:57:18.598Z,9.27
2023-05-21T13:02:44.342Z,7.28
2023-05-21T13:08:06.223Z,8.85
2023-05-21T13:13:27.007Z,8.00
2023-05-21T13:18:47.815Z,7.78
2023-05-21T13:24:08.444Z,7.70
2023-05-21T13:29:29.223Z,7.22
2023-05-21T13:34:52.657Z,5.50
2023-05-21T13:40:15.274Z,4.88
2023-05-21T13:45:36.783Z,7.78
2023-05-21T13:50:57.699Z,6.00
2023-05-21T13:56:18.580Z,6.45
2023-05-21T14:01:39.311Z,6.05
2023-05-21T14:07:00.004Z,6.43
2023-05-21T14:12:21.847Z,5.30
2023-05-21T14:17:42.700Z,8.50
2023-05-21T14:23:03.434Z,6.22
2023-05-21T14:28:24.292Z,7.15
2023-05-21T14:33:44.712Z,5.10
2023-05-21T14:39:05.983Z,5.60
2023-05-21T14:44:27.000Z,6.90
2023-05-21T14:49:49.012Z,7.65
2023-05-21T14:55:12.854Z,5.35
2023-05-21T15:00:34.311Z,4.60
2023-05-21T15:05:55.050Z,6.07
2023-05-21T15:11:15.872Z,4.57
2023-05-21T15:16:37.077Z,5.22
2023-05-21T15:21:57.925Z,6.18
2023-05-21T15:27:18.595Z,8.82
2023-05-21T15:32:39.251Z,10.05
2023-05-21T15:38:00.094Z,4.75
2023-05-21T15:43:20.668Z,5.53
2023-05-21T15:48:41.302Z,6.75
2023-05-21T15:54:02.016Z,4.70
2023-05-21T15:59:22.655Z,5.43
2023-05-21T16:04:43.625Z,5.78
2023-05-21T16:10:04.426Z,7.85
2023-05-21T16:15:25.621Z,7.25
2023-05-21T16:20:47.099Z,5.65
2023-05-21T16:26:08.717Z,6.53
2023-05-21T16:31:29.561Z,8.60
2023-05-21T16:36:51.670Z,6.95
2023-05-21T16:42:12.195Z,6.70
2023-05-21T16:47:33.075Z,7.90
2023-05-21T16:52:53.550Z,6.82
2023-05-21T16:58:14.282Z,8.82
2023-05-21T17:03:35.327Z,5.18
2023-05-21T17:08:56.083Z,5.63
2023-05-21T17:14:32.523Z,6.53
2023-05-21T17:19:55.019Z,10.43
2023-05-21T17:25:16.109Z,7.53
2023-05-21T17:30:37.236Z,9.05
2023-05-21T17:35:58.020Z,7.80
2023-05-21T17:41:19.377Z,10.18
2023-05-21T17:46:40.163Z,5.47
2023-05-21T17:52:03.079Z,9.52
2023-05-21T17:57:24.572Z,7.00
2023-05-21T18:02:46.186Z,7.17
2023-05-21T18:08:09.976Z,12.00
2023-05-21T18:13:30.979Z,7.50
2023-05-21T18:18:51.969Z,7.85
2023-05-21T18:24:12.981Z,8.02
2023-05-21T18:29:33.707Z,6.85
2023-05-21T18:34:54.360Z,7.32
2023-05-21T18:40:15.227Z,9.10
2023-05-21T18:45:36.763Z,9.50
2023-05-21T18:50:57.983Z,7.63
2023-05-21T18:56:18.675Z,8.88
2023-05-21T19:01:39.430Z,8.63
2023-05-21T19:06:59.938Z,8.23
2023-05-21T19:12:20.846Z,6.68
2023-05-21T19:17:41.661Z,8.63
2023-05-21T19:23:02.511Z,7.88
2023-05-21T19:28:23.311Z,5.93
2023-05-21T19:33:43.997Z,7.95
2023-05-21T19:39:04.607Z,6.97
2023-05-21T19:44:25.405Z,8.20
2023-05-21T19:49:46.137Z,8.48
2023-05-21T19:55:08.704Z,8.82
2023-05-21T20:00:29.636Z,7.20
2023-05-21T20:05:50.488Z,7.50
2023-05-21T20:11:11.275Z,9.05
2023-05-21T20:16:31.958Z,9.02
2023-05-21T20:21:52.891Z,8.68
2023-05-21T20:27:18.614Z,8.48
2023-05-21T20:32:39.210Z,9.60
2023-05-21T20:38:02.228Z,13.15
2023-05-21T20:43:24.535Z,7.88
2023-05-21T20:48:45.642Z,9.43
2023-05-21T20:54:06.731Z,8.35
2023-05-21T20:59:27.839Z,6.40
2023-05-21T21:04:49.182Z,8.82
2023-05-21T21:10:10.113Z,10.38
2023-05-21T21:15:30.972Z,6.65
2023-05-21T21:20:51.831Z,10.88
2023-05-21T21:26:12.712Z,8.07
2023-05-21T21:31:34.105Z,9.73
2023-05-21T21:36:54.703Z,7.65
2023-05-21T21:42:15.648Z,9.75
2023-05-21T21:47:36.848Z,9.60
2023-05-21T21:52:57.513Z,8.25
2023-05-21T21:58:18.237Z,8.40
2023-05-21T22:03:38.923Z,10.30
2023-05-21T22:08:59.547Z,6.68
2023-05-21T22:14:20.368Z,8.52
2023-05-21T22:19:41.239Z,9.25
2023-05-21T22:25:02.142Z,8.25
2023-05-21T22:30:22.999Z,10.15
2023-05-21T22:35:44.799Z,10.02
2023-05-21T22:41:05.827Z,7.70
2023-05-21T22:46:26.629Z,9.35
2023-05-21T22:51:48.063Z,8.20
2023-05-21T22:57:09.141Z,8.13
2023-05-21T23:02:30.532Z,10.55
2023-05-21T23:07:51.932Z,11.48
2023-05-21T23:13:12.996Z,8.85
2023-05-21T23:18:34.765Z,6.20
2023-05-21T23:23:55.746Z,7.35
2023-05-21T23:29:16.599Z,7.80
2023-05-21T23:34:37.455Z,8.48
2023-05-21T23:39:58.459Z,7.82
2023-05-21T23:45:19.163Z,9.25
2023-05-21T23:50:40.306Z,9.45
2023-05-21T23:56:01.019Z,8.57
